Crnomelj, Slovenia

1:23 PM CET on December 19, 2014 (GMT +0100)
Primorsko Goranska Zupanija | Change Station
CLOSE
Current Station
Personal Weather Station
Location: Veliki Lesnica, GORSKI KOTAR
Elevation: 1082 ft
Nearby Weather Stations

Elev 1082 ft 45.44 °N, 14.84 °E | Updated 7 minutes ago

Clear
Clear
56.3 °F
Feels Like 56.3 °F
N
0.0
Wind Variable Wind from East
Gusts 0.0 mph

Today
High -- | Low -- °F
--% Chance of Precip.
Yesterday
High -- | Low -- °F
Precip. -- in
7:35 AM 4:17 PM
Waning Crescent, 8% visible
Pressure 30.09 in
Visibility -9999.0 miles
Clouds
Dew Point 44 °F
Humidity 64%
Rainfall 0.00 in
Snow Depth Not available.
UV Not available.
Pollen Not available.
Air Quality Not available.
Flu Activity Not available.
METAR LJCE 191200Z 23010KT CAVOK 13/06 Q1019 RMK BLU

More Conditions Fewer Conditions

Pressure 30.09 in
Visibility -9999.0 miles
Clouds
Dew Point 44 °F
Humidity 64%
Rainfall 0.00 in
Snow Depth Not available.
UV Not available.
Pollen Not available.
Air Quality Not available.
Flu Activity Not available.
METAR LJCE 191200Z 23010KT CAVOK 13/06 Q1019 RMK BLU

More Conditions Fewer Conditions

10-Day Weather Forecast

Almanac

Astronomy

Dec. 19, 2014 Rise Set
Actual Time
Civil Twilight
Nautical Twilight
Astronomical Twilight
Moon
Length of Visible Light
Length of Day
Tomorrow will be .
, % of the Moon is Illuminated

Today's Extremes

Country Highs Country Lows

Community

WunderPhotos

Upload Photos

1,778,970 photos uploaded!

WunderBlogs® & News

Nearby

Air Quality

  Air Quality AQ Index Pollutant
Not available.

Snow Depth

Station Depth Elevation

Earthquake Activity

City Distance Mag. Time & Date
Minimum magnitude displayed is 2.5.

Coastal Water Temperatures

Place Temperature

Nearby Weather Stations